.
WxDataArchive / Data Records for 2012-07-26
2012-07-25 July 2012 2012-07-27

Data Records for Thursday, 26 July 2012

Time	Temp	Chill	HIndex	Humid	Dewpt	 Wind 	HiWind	WindDir	Rain 	Barom 
-----	----	-----	------	-----	-----	------	------	-------	-----	----- 
00:00	83.0	83.0	89.8	75	74.2	0	3	248	0.00	29.618 
00:05	82.8	82.8	89.3	75	74.0	0	1	248	0.00	29.618 
00:10	82.6	82.6	88.9	75	73.8	0	2	248	0.00	29.618 
00:15	82.6	82.6	88.9	75	73.8	1	3	248	0.00	29.618 
00:20	82.4	82.4	88.4	75	73.7	0	2	248	0.00	29.618 
00:25	82.4	82.4	88.4	75	73.7	0	1	248	0.00	29.618 
00:30	82.2	82.2	88.0	75	73.5	0	1	248	0.00	29.618 
00:35	81.8	81.8	87.1	75	73.1	0	1	248	0.00	29.618 
00:40	81.8	81.8	87.1	75	73.1	0	2	248	0.00	29.618 
00:45	81.6	81.6	86.7	75	72.9	0	1	248	0.00	29.618 
00:50	81.6	81.6	86.7	75	72.9	0	1	248	0.00	29.618 
00:55	81.6	81.6	86.7	75	72.9	0	1	248	0.00	29.618 
01:00	81.6	81.6	86.7	75	72.9	0	1	248	0.00	29.620 
01:05	81.6	81.6	86.7	75	72.9	0	1	248	0.00	29.620 
01:10	81.6	81.6	86.7	75	72.9	0	1	248	0.00	29.620 
01:15	81.6	81.6	86.7	75	72.9	0	1	248	0.00	29.622 
01:20	81.6	81.6	86.7	75	72.9	0	1	248	0.00	29.622 
01:25	81.6	81.6	86.7	75	72.9	0	1	248	0.00	29.622 
01:30	81.6	81.6	86.7	75	72.9	0	2	248	0.00	29.622 
01:35	81.6	81.6	86.7	75	72.9	0	1	248	0.00	29.622 
01:40	81.6	81.6	86.7	75	72.9	0	1	248	0.00	29.622 
01:45	81.6	81.6	86.5	74	72.5	0	1	248	0.00	29.619 
01:50	81.6	81.6	86.5	74	72.5	0	1	248	0.00	29.619 
01:55	81.6	81.6	86.7	75	72.9	0	1	248	0.00	29.619 
02:00	81.6	81.6	86.5	74	72.5	0	1	248	0.00	29.620 
02:05	81.6	81.6	86.5	74	72.5	0	2	248	0.00	29.620 
02:10	81.4	81.4	86.1	74	72.3	0	1	248	0.00	29.620 
02:15	81.4	81.4	86.1	74	72.3	0	1	248	0.00	29.618 
02:20	81.2	81.2	85.7	74	72.1	0	1	248	0.00	29.618 
02:25	81.2	81.2	85.5	73	71.7	0	2	248	0.00	29.618 
02:30	81.2	81.2	85.3	72	71.3	0	1	248	0.00	29.618 
02:35	81.4	81.4	85.5	71	71.1	0	2	248	0.00	29.618 
02:40	81.6	81.6	85.5	69	70.4	0	2	248	0.00	29.618 
02:45	81.8	81.8	85.9	69	70.6	0	1	248	0.00	29.615 
02:50	81.8	81.8	85.5	67	69.7	1	4	225	0.00	29.615 
02:55	82.0	82.0	85.6	66	69.5	1	3	225	0.00	29.615 
03:00	82.2	82.2	85.5	64	68.8	1	4	248	0.00	29.613 
03:05	82.6	82.6	85.7	62	68.2	1	3	270	0.00	29.613 
03:10	82.8	82.8	85.6	60	67.5	1	3	270	0.00	29.613 
03:15	83.2	83.2	85.8	58	66.9	1	3	270	0.00	29.614 
03:20	83.4	83.4	86.1	58	67.0	1	3	270	0.00	29.614 
03:25	83.8	83.8	86.4	57	66.9	2	5	270	0.00	29.614 
03:30	84.1	84.1	86.7	56	66.7	1	4	270	0.00	29.606 
03:35	84.3	84.3	86.7	55	66.3	2	4	270	0.00	29.606 
03:40	84.3	84.3	86.7	55	66.3	1	3	338	0.00	29.606 
03:45	84.3	84.3	86.7	55	66.3	1	3	270	0.00	29.606 
03:50	84.5	84.5	87.0	55	66.5	2	6	270	0.00	29.606 
03:55	84.5	84.5	87.0	55	66.5	2	5	270	0.00	29.606 
04:00	84.5	84.5	87.0	55	66.5	2	5	248	0.00	29.605 
04:05	84.3	84.3	86.7	55	66.3	2	4	248	0.00	29.605 
04:10	84.3	84.3	86.7	55	66.3	2	4	270	0.00	29.605 
04:15	84.3	84.3	86.7	55	66.3	1	4	270	0.00	29.604 
04:20	84.3	84.3	87.0	56	66.9	1	4	225	0.00	29.604 
04:25	84.1	84.1	86.7	56	66.7	1	4	270	0.00	29.604 
04:30	84.0	84.0	86.7	57	67.1	0	2	270	0.00	29.598 
04:35	83.8	83.8	86.4	57	66.9	1	4	270	0.00	29.598 
04:40	83.6	83.6	86.1	57	66.7	1	4	270	0.00	29.598 
04:45	83.2	83.2	85.8	58	66.9	1	2	292	0.00	29.594 
04:50	83.0	83.0	85.7	59	67.2	1	4	315	0.00	29.594 
04:55	82.6	82.6	85.1	59	66.8	0	2	315	0.00	29.594 
05:00	82.4	82.4	85.0	60	67.1	1	3	315	0.00	29.589 
05:05	82.4	82.4	85.0	60	67.1	1	4	248	0.00	29.589 
05:10	82.2	82.2	84.7	60	66.9	1	3	248	0.00	29.589 
05:15	82.0	82.0	84.6	61	67.2	1	4	248	0.00	29.598 
05:20	82.0	82.0	84.6	61	67.2	1	3	248	0.00	29.598 
05:25	82.0	82.0	84.6	61	67.2	1	4	248	0.00	29.598 
05:30	82.0	82.0	84.6	61	67.2	1	4	270	0.00	29.601 
05:35	82.0	82.0	84.6	61	67.2	1	3	248	0.00	29.601 
05:40	82.0	82.0	84.6	61	67.2	1	4	248	0.00	29.601 
05:45	82.0	82.0	84.6	61	67.2	1	5	270	0.00	29.600 
05:50	82.0	82.0	84.8	62	67.7	1	3	270	0.00	29.600 
05:55	81.8	81.8	84.5	62	67.5	1	3	270	0.00	29.600 
06:00	81.8	81.8	84.5	62	67.5	1	4	248	0.00	29.604 
06:05	81.8	81.8	84.5	62	67.5	2	4	248	0.00	29.604 
06:10	81.8	81.8	84.7	63	67.9	2	4	270	0.00	29.604 
06:15	81.6	81.6	84.4	63	67.8	1	4	270	0.00	29.623 
06:20	81.8	81.8	84.7	63	67.9	2	5	270	0.00	29.623 
06:25	81.8	81.8	84.7	63	67.9	2	6	270	0.00	29.623 
06:30	82.0	82.0	85.0	63	68.1	2	4	270	0.00	29.617 
06:35	82.0	82.0	85.0	63	68.1	2	5	270	0.00	29.617 
06:40	82.0	82.0	85.0	63	68.1	1	4	270	0.00	29.617 
06:45	81.8	81.8	84.9	64	68.4	2	4	270	0.00	29.613 
06:50	81.6	81.6	84.6	64	68.2	1	3	270	0.00	29.613 
06:55	81.6	81.6	84.6	64	68.2	1	4	270	0.00	29.613 
07:00	81.6	81.6	84.6	64	68.2	1	4	270	0.00	29.611 
07:05	81.4	81.4	84.4	65	68.5	2	4	270	0.00	29.611 
07:10	81.6	81.6	84.7	65	68.7	2	4	270	0.00	29.611 
07:15	81.4	81.4	84.4	65	68.5	1	5	270	0.00	29.618 
07:20	81.4	81.4	84.4	65	68.5	2	5	270	0.00	29.618 
07:25	81.4	81.4	84.4	65	68.5	1	4	270	0.00	29.618 
07:30	81.4	81.4	84.4	65	68.5	2	5	270	0.00	29.623 
07:35	81.4	81.4	84.6	66	68.9	1	3	270	0.00	29.623 
07:40	81.2	81.2	84.3	66	68.7	2	4	270	0.00	29.623 
07:45	81.2	81.2	84.5	67	69.2	2	3	270	0.00	29.631 
07:50	81.2	81.2	84.5	67	69.2	2	5	270	0.00	29.631 
07:55	81.2	81.2	84.5	67	69.2	2	6	270	0.00	29.631 
08:00	81.1	81.1	84.5	68	69.5	1	3	270	0.00	29.644 
08:05	81.1	81.1	84.5	68	69.5	1	3	270	0.00	29.644 
08:10	81.1	81.1	84.5	68	69.5	2	5	270	0.00	29.644 
08:15	80.9	80.9	84.1	68	69.3	1	5	292	0.00	29.645 
08:20	80.9	80.9	84.3	69	69.8	1	3	292	0.00	29.645 
08:25	80.9	80.9	84.3	69	69.8	1	2	292	0.00	29.645 
08:30	80.9	80.9	84.3	69	69.8	1	2	292	0.00	29.645 
08:35	80.9	80.9	84.3	69	69.8	1	3	292	0.00	29.645 
08:40	80.9	80.9	84.5	70	70.2	1	3	292	0.00	29.645 
08:45	80.9	80.9	84.5	70	70.2	1	3	292	0.00	29.649 
08:50	80.9	80.9	84.5	70	70.2	0	1	292	0.00	29.649 
08:55	81.1	81.1	84.8	70	70.4	1	3	292	0.00	29.649 
09:00	81.1	81.1	84.8	70	70.4	1	2	292	0.00	29.648 
09:05	81.2	81.2	85.0	70	70.5	0	3	292	0.00	29.648 
09:10	81.2	81.2	85.0	70	70.5	1	3	292	0.00	29.648 
09:15	81.4	81.4	85.3	70	70.7	1	2	292	0.00	29.652 
09:20	81.6	81.6	85.7	70	70.8	1	2	292	0.00	29.652 
09:25	81.6	81.6	85.5	69	70.4	0	2	292	0.00	29.652 
09:30	81.8	81.8	86.1	70	71.0	0	2	292	0.00	29.650 
09:35	81.8	81.8	85.9	69	70.6	1	3	292	0.00	29.650 
09:40	81.6	81.6	85.5	69	70.4	1	3	292	0.00	29.650 
09:45	81.6	81.6	85.5	69	70.4	1	3	292	0.00	29.663 
09:50	81.6	81.6	85.5	69	70.4	2	4	292	0.00	29.663 
09:55	81.6	81.6	85.7	70	70.8	1	3	292	0.00	29.663 
10:00	81.4	81.4	85.1	69	70.2	2	3	292	0.00	29.676 
10:05	81.4	81.4	85.3	70	70.7	1	3	292	0.00	29.676 
10:10	81.2	81.2	85.2	71	70.9	1	4	292	0.00	29.676 
10:15	81.4	81.4	85.5	71	71.1	1	2	292	0.00	29.666 
10:20	82.0	82.0	86.7	71	71.6	1	4	292	0.00	29.666 
10:25	82.4	82.4	87.0	69	71.2	2	4	292	0.00	29.666 
10:30	82.4	82.4	86.7	68	70.8	3	5	270	0.00	29.683 
10:35	82.4	82.4	87.0	69	71.2	3	5	270	0.00	29.683 
10:40	82.6	82.6	87.3	69	71.4	2	4	270	0.00	29.683 
10:45	82.4	82.4	87.2	70	71.6	1	4	270	0.00	29.681 
10:50	82.2	82.2	86.6	69	71.0	1	4	292	0.00	29.681 
10:55	82.2	82.2	86.6	69	71.0	1	3	315	0.00	29.681 
11:00	82.4	82.4	87.0	69	71.2	1	2	315	0.00	29.682 
11:05	82.4	82.4	87.0	69	71.2	1	3	315	0.00	29.682 
11:10	82.6	82.6	87.6	70	71.8	1	3	315	0.00	29.682 
11:15	82.8	82.8	87.5	68	71.1	1	3	315	0.00	29.681 
11:20	83.2	83.2	88.5	69	71.9	1	2	315	0.00	29.681 
11:25	84.0	84.0	89.2	66	71.4	2	3	315	0.00	29.681 
11:30	84.0	84.0	88.9	65	70.9	1	2	315	0.00	29.676 
11:35	84.3	84.3	89.2	64	70.8	0	2	315	0.00	29.676 
11:40	84.5	84.5	89.0	62	70.0	1	2	315	0.00	29.676 
11:45	85.1	85.1	90.4	63	71.1	0	1	315	0.00	29.671 
11:50	85.7	85.7	89.9	58	69.2	1	3	135	0.00	29.671 
11:55	86.1	86.1	91.3	60	70.6	0	3	135	0.00	29.671 
12:00	87.0	87.0	91.5	56	69.4	1	3	248	0.00	29.665 
12:05	87.6	87.6	91.8	54	68.9	1	3	248	0.00	29.665 
12:10	88.2	88.2	92.5	53	68.9	1	3	248	0.00	29.665 
12:15	88.2	88.2	92.5	53	68.9	1	3	248	0.00	29.666 
12:20	88.2	88.2	92.1	52	68.3	1	4	248	0.00	29.666 
12:25	88.4	88.4	92.9	53	69.1	1	4	248	0.00	29.666 
12:30	88.0	88.0	92.2	53	68.7	1	3	338	0.00	29.668 
12:35	87.8	87.8	91.1	51	67.4	1	3	315	0.00	29.668 
12:40	87.8	87.8	91.1	51	67.4	1	3	315	0.00	29.668 
12:45	87.6	87.6	90.4	50	66.6	2	6	315	0.00	29.675 
12:50	87.6	87.6	90.4	50	66.6	3	5	270	0.00	29.675 
12:55	87.0	87.0	89.7	51	66.6	3	4	270	0.00	29.675 
13:00	86.5	86.5	89.6	53	67.3	3	7	270	0.00	29.694 
13:05	85.9	85.9	88.6	53	66.7	3	6	270	0.00	29.694 
13:10	85.7	85.7	88.6	54	67.1	2	3	248	0.00	29.694 
13:15	85.9	85.9	89.2	55	67.8	2	4	248	0.00	29.689 
13:20	85.7	85.7	89.2	56	68.2	2	5	270	0.00	29.689 
13:25	85.7	85.7	88.9	55	67.6	1	5	270	0.00	29.689 
13:30	85.3	85.3	88.0	54	66.7	2	4	248	0.00	29.683 
13:35	85.3	85.3	88.5	56	67.8	1	4	248	0.00	29.683 
13:40	85.5	85.5	88.9	56	68.0	1	4	248	0.00	29.683 
13:45	85.5	85.5	88.6	55	67.5	2	3	248	0.00	29.680 
13:50	85.3	85.3	88.2	55	67.3	2	3	270	0.00	29.680 
13:55	85.1	85.1	87.9	55	67.1	1	4	270	0.00	29.680 
14:00	84.9	84.9	87.6	55	66.9	1	4	292	0.00	29.680 
14:05	84.7	84.7	87.9	57	67.7	1	4	292	0.00	29.680 
14:10	84.3	84.3	87.0	56	66.9	2	3	270	0.00	29.680 
14:15	84.1	84.1	86.9	57	67.2	2	4	292	0.00	29.666 
14:20	83.8	83.8	86.7	58	67.4	2	4	270	0.00	29.666 
14:25	83.4	83.4	86.3	59	67.5	2	4	270	0.00	29.666 
14:30	83.0	83.0	86.1	61	68.1	2	4	292	0.00	29.667 
14:35	83.0	83.0	85.9	60	67.7	2	4	292	0.00	29.667 
14:40	83.2	83.2	86.5	61	68.3	1	4	270	0.00	29.667 
14:45	83.4	83.4	86.5	60	68.0	1	3	270	0.00	29.667 
14:50	83.2	83.2	86.0	59	67.4	3	5	292	0.00	29.667 
14:55	83.0	83.0	85.9	60	67.7	3	4	270	0.00	29.667 
15:00	83.2	83.2	86.2	60	67.8	3	5	292	0.00	29.668 
15:05	83.4	83.4	86.8	61	68.5	3	6	292	0.00	29.668 
15:10	83.8	83.8	87.5	61	68.9	3	5	338	0.00	29.668 
15:15	84.0	84.0	87.5	60	68.6	3	6	292	0.00	29.665 
15:20	84.5	84.5	87.8	58	68.1	2	4	315	0.00	29.665 
15:25	84.7	84.7	88.4	59	68.8	3	6	270	0.00	29.665 
15:30	84.5	84.5	87.8	58	68.1	4	7	270	0.00	29.662 
15:35	84.5	84.5	88.1	59	68.6	2	5	270	0.00	29.662 
15:40	84.5	84.5	88.1	59	68.6	3	9	270	0.00	29.662 
15:45	84.9	84.9	88.2	57	67.9	4	9	248	0.00	29.659 
15:50	85.3	85.3	88.8	57	68.3	3	6	292	0.00	29.659 
15:55	85.7	85.7	89.5	57	68.7	2	6	270	0.00	29.659 
16:00	86.3	86.3	89.6	54	67.7	2	7	270	0.00	29.646 
16:05	86.7	86.7	90.3	54	68.0	3	6	270	0.00	29.646 
16:10	86.5	86.5	89.9	54	67.8	4	7	270	0.00	29.646 
16:15	85.9	85.9	88.9	54	67.3	3	7	270	0.00	29.642 
16:20	85.9	85.9	88.6	53	66.7	4	7	248	0.00	29.642 
16:25	85.9	85.9	88.6	53	66.7	2	4	248	0.00	29.642 
16:30	85.7	85.7	88.3	53	66.6	4	7	248	0.00	29.643 
16:35	85.1	85.1	87.7	54	66.6	4	6	270	0.00	29.643 
16:40	85.5	85.5	88.9	56	68.0	4	7	270	0.00	29.643 
16:45	85.7	85.7	89.2	56	68.2	4	9	270	0.00	29.635 
16:50	85.9	85.9	89.2	55	67.8	2	5	225	0.00	29.635 
16:55	84.9	84.9	87.6	55	66.9	4	7	270	0.00	29.635 
17:00	84.1	84.1	86.9	57	67.2	4	10	270	0.00	29.635 
17:05	83.8	83.8	86.7	58	67.4	4	8	270	0.00	29.635 
17:10	83.8	83.8	86.7	58	67.4	4	7	270	0.00	29.635 
17:15	84.1	84.1	87.2	58	67.7	3	6	270	0.00	29.633 
17:20	84.1	84.1	87.2	58	67.7	4	7	270	0.00	29.633 
17:25	84.3	84.3	87.8	59	68.4	4	9	270	0.00	29.633 
17:30	84.1	84.1	87.2	58	67.7	4	10	270	0.00	29.635 
17:35	83.6	83.6	86.9	60	68.2	4	6	270	0.00	29.635 
17:40	83.4	83.4	86.3	59	67.5	4	6	270	0.00	29.635 
17:45	83.0	83.0	85.9	60	67.7	4	10	270	0.00	29.648 
17:50	82.8	82.8	85.8	61	67.9	3	6	270	0.00	29.648 
17:55	82.6	82.6	85.5	61	67.8	3	8	248	0.00	29.648 
18:00	82.6	82.6	85.7	62	68.2	5	8	270	0.00	29.650 
18:05	82.2	82.2	85.1	62	67.9	4	7	270	0.00	29.650 
18:10	82.0	82.0	85.0	63	68.1	4	7	270	0.00	29.650 
18:15	81.8	81.8	84.7	63	67.9	5	7	270	0.00	29.651 
18:20	82.0	82.0	85.2	64	68.6	3	7	270	0.00	29.651 
18:25	81.8	81.8	84.9	64	68.4	4	7	270	0.00	29.651 
18:30	82.2	82.2	85.7	65	69.2	3	7	270	0.00	29.655 
18:35	82.0	82.0	85.2	64	68.6	4	10	270	0.00	29.655 
18:40	81.8	81.8	84.9	64	68.4	4	7	270	0.00	29.655 
18:45	81.8	81.8	85.1	65	68.9	3	5	292	0.00	29.666 
18:50	82.0	82.0	85.4	65	69.0	2	6	292	0.00	29.666 
18:55	82.2	82.2	85.5	64	68.8	3	7	315	0.00	29.666 
19:00	82.2	82.2	85.7	65	69.2	3	8	270	0.00	29.666 
19:05	82.0	82.0	85.4	65	69.0	3	7	270	0.00	29.666 
19:10	82.0	82.0	85.4	65	69.0	3	6	270	0.00	29.666 
19:15	82.2	82.2	85.7	65	69.2	3	6	270	0.00	29.667 
19:20	81.8	81.8	85.1	65	68.9	3	9	315	0.00	29.667 
19:25	81.8	81.8	85.1	65	68.9	2	4	315	0.00	29.667 
19:30	81.8	81.8	85.3	66	69.3	1	3	315	0.00	29.669 
19:35	81.6	81.6	84.9	66	69.1	1	5	292	0.00	29.669 
19:40	81.4	81.4	84.6	66	68.9	3	5	270	0.00	29.669 
19:45	81.4	81.4	84.8	67	69.4	0	3	315	0.00	29.673 
19:50	81.4	81.4	84.6	66	68.9	1	6	338	0.00	29.673 
19:55	81.4	81.4	84.8	67	69.4	1	5	315	0.00	29.673 
20:00	81.6	81.6	85.1	67	69.6	1	5	315	0.00	29.684 
20:05	81.4	81.4	84.6	66	68.9	3	5	270	0.00	29.684 
20:10	81.2	81.2	84.3	66	68.7	3	6	270	0.00	29.684 
20:15	81.2	81.2	84.5	67	69.2	1	3	270	0.00	29.687 
20:20	81.1	81.1	84.3	67	69.1	2	5	292	0.00	29.687 
20:25	80.7	80.7	83.7	67	68.7	2	4	338	0.00	29.687 
20:30	80.7	80.7	83.7	67	68.7	2	4	270	0.00	29.687 
20:35	80.5	80.5	83.5	68	68.9	2	5	270	0.00	29.687 
20:40	80.3	80.3	83.2	68	68.8	2	5	270	0.00	29.687 
20:45	80.3	80.3	83.3	69	69.2	1	3	315	0.00	29.690 
20:50	80.1	80.1	83.0	69	69.0	1	2	315	0.00	29.690 
20:55	79.9	79.9	82.8	70	69.2	0	1	315	0.00	29.690 
21:00	79.8	79.8	82.7	71	69.5	1	3	315	0.00	29.687 
21:05	79.6	79.6	82.4	71	69.3	0	1	315	0.00	29.687 
21:10	79.6	79.6	82.5	72	69.8	0	1	315	0.00	29.687 
21:15	79.4	79.4	82.2	72	69.6	0	0	---	0.00	29.688 
21:20	79.0	79.0	81.6	73	69.6	0	2	315	0.00	29.688 
21:25	79.0	79.0	81.7	74	70.0	0	1	315	0.00	29.688 
21:30	78.8	78.8	81.4	74	69.8	0	1	315	0.00	29.701 
21:35	78.6	78.6	81.1	75	70.0	0	1	315	0.00	29.701 
21:40	78.6	78.6	81.1	75	70.0	0	1	315	0.00	29.701 
21:45	78.5	78.5	81.0	76	70.3	0	1	315	0.00	29.715 
21:50	78.3	78.3	80.7	76	70.1	0	1	315	0.00	29.715 
21:55	78.3	78.3	80.7	77	70.5	0	1	315	0.00	29.715 
22:00	78.1	78.1	80.4	77	70.3	0	1	315	0.00	29.730 
22:05	77.9	77.9	80.1	77	70.1	0	1	315	0.00	29.730 
22:10	77.9	77.9	80.1	78	70.5	0	1	315	0.00	29.730 
22:15	77.9	77.9	80.1	78	70.5	0	1	315	0.00	29.734 
22:20	77.7	77.7	79.7	78	70.3	0	1	315	0.00	29.734 
22:25	77.7	77.7	79.7	78	70.3	0	0	---	0.00	29.734 
22:30	77.4	77.4	79.3	79	70.4	0	1	315	0.00	29.734 
22:35	77.4	77.4	79.2	80	70.7	0	1	315	0.00	29.734 
22:40	77.2	77.2	78.9	80	70.5	0	0	---	0.00	29.734 
22:45	77.0	77.0	78.6	80	70.3	0	0	---	0.00	29.731 
22:50	77.0	77.0	78.5	81	70.7	0	0	---	0.00	29.731 
22:55	77.2	77.2	78.9	81	70.9	0	0	---	0.00	29.731 
23:00	77.2	77.2	78.9	80	70.5	0	1	315	0.00	29.730 
23:05	77.2	77.2	78.9	81	70.9	0	2	315	0.00	29.730 
23:10	77.2	77.2	78.9	81	70.9	0	2	315	0.00	29.730 
23:15	77.2	77.2	78.9	81	70.9	0	1	315	0.00	29.725 
23:20	77.2	77.2	78.9	81	70.9	0	1	315	0.00	29.725 
23:25	77.2	77.2	78.9	81	70.9	0	2	315	0.00	29.725 
23:30	77.2	77.2	78.9	81	70.9	0	1	315	0.00	29.711 
23:35	77.2	77.2	78.9	81	70.9	0	2	315	0.00	29.711 
23:40	77.2	77.2	78.9	82	71.3	0	1	315	0.00	29.711 
23:45	77.0	77.0	78.5	82	71.1	0	2	315	0.00	29.697 
23:50	77.0	77.0	78.5	82	71.1	0	1	315	0.00	29.697 
23:55	77.0	77.0	78.5	82	71.1	0	3	315	0.00	29.697 

CoCoRaHS
IN-AL-39
A2 Web Hosting
Creative Commons License
GoDaddy
search engine by freefind advanced

loaded 2018-11-15 03:42:57 • last modified 2010-11-18 10:43:29
Privacy PolicyDisclaimer
• wx.awcolley.com is powered by PmWiki v.2002016 •
• all content (unless otherwise noted) © 2018 A W Colley